sensor_id;sensor_type;location;lat;lon;timestamp;pressure;altitude;pressure_sealevel;temperature;humidity
23170;BME280;11753;43.144;24.714;2023-08-21T00:00:46;99750.59;;;22.71;80.24
23170;BME280;11753;43.144;24.714;2023-08-21T00:01:47;99757.84;;;22.71;80.78
23170;BME280;11753;43.144;24.714;2023-08-21T00:02:47;99755.97;;;22.71;80.79
23170;BME280;11753;43.144;24.714;2023-08-21T00:03:47;99756.81;;;22.72;81.18
23170;BME280;11753;43.144;24.714;2023-08-21T00:04:48;99761.13;;;22.73;80.76
23170;BME280;11753;43.144;24.714;2023-08-21T00:05:48;99762.28;;;22.65;81.30
23170;BME280;11753;43.144;24.714;2023-08-21T00:06:49;99762.03;;;22.67;81.51
23170;BME280;11753;43.144;24.714;2023-08-21T00:07:49;99759.78;;;22.64;81.60
23170;BME280;11753;43.144;24.714;2023-08-21T00:08:51;99763.53;;;22.63;81.08
23170;BME280;11753;43.144;24.714;2023-08-21T00:09:51;99753.72;;;22.57;81.69
23170;BME280;11753;43.144;24.714;2023-08-21T00:10:52;99748.34;;;22.57;82.02
23170;BME280;11753;43.144;24.714;2023-08-21T00:11:52;99751.16;;;22.62;81.82
23170;BME280;11753;43.144;24.714;2023-08-21T00:12:52;99752.78;;;22.63;81.48
23170;BME280;11753;43.144;24.714;2023-08-21T00:13:53;99751.97;;;22.62;81.87
23170;BME280;11753;43.144;24.714;2023-08-21T00:14:53;99747.44;;;22.63;81.78
23170;BME280;11753;43.144;24.714;2023-08-21T00:15:54;99753.84;;;22.62;81.94
23170;BME280;11753;43.144;24.714;2023-08-21T00:16:55;99749.06;;;22.64;81.35
23170;BME280;11753;43.144;24.714;2023-08-21T00:17:55;99750.72;;;22.65;81.58
23170;BME280;11753;43.144;24.714;2023-08-21T00:18:56;99753.63;;;22.63;81.26
23170;BME280;11753;43.144;24.714;2023-08-21T00:19:56;99757.00;;;22.59;81.66
23170;BME280;11753;43.144;24.714;2023-08-21T00:20:56;99752.44;;;22.59;81.70
23170;BME280;11753;43.144;24.714;2023-08-21T00:21:57;99753.94;;;22.55;82.36
23170;BME280;11753;43.144;24.714;2023-08-21T00:22:57;99748.13;;;22.58;81.72
23170;BME280;11753;43.144;24.714;2023-08-21T00:23:57;99750.44;;;22.55;81.85
23170;BME280;11753;43.144;24.714;2023-08-21T00:24:58;99755.81;;;22.55;82.13
23170;BME280;11753;43.144;24.714;2023-08-21T00:26:04;99750.00;;;22.58;82.03
23170;BME280;11753;43.144;24.714;2023-08-21T00:27:08;99755.56;;;22.56;81.79
23170;BME280;11753;43.144;24.714;2023-08-21T00:28:08;99748.94;;;22.59;81.83
23170;BME280;11753;43.144;24.714;2023-08-21T00:29:08;99750.00;;;22.58;82.37
23170;BME280;11753;43.144;24.714;2023-08-21T00:30:09;99750.34;;;22.61;81.78
23170;BME280;11753;43.144;24.714;2023-08-21T00:31:09;99757.19;;;22.57;81.91
23170;BME280;11753;43.144;24.714;2023-08-21T00:32:10;99754.53;;;22.57;82.06
23170;BME280;11753;43.144;24.714;2023-08-21T00:33:12;99754.19;;;22.53;82.00
23170;BME280;11753;43.144;24.714;2023-08-21T00:34:12;99751.72;;;22.52;82.21
23170;BME280;11753;43.144;24.714;2023-08-21T00:35:13;99747.03;;;22.47;81.89
23170;BME280;11753;43.144;24.714;2023-08-21T00:36:13;99755.09;;;22.47;82.30
23170;BME280;11753;43.144;24.714;2023-08-21T00:37:13;99753.22;;;22.48;82.44
23170;BME280;11753;43.144;24.714;2023-08-21T00:38:14;99750.19;;;22.44;82.17
23170;BME280;11753;43.144;24.714;2023-08-21T00:39:14;99748.56;;;22.43;81.90
23170;BME280;11753;43.144;24.714;2023-08-21T00:40:14;99753.91;;;22.43;82.61
23170;BME280;11753;43.144;24.714;2023-08-21T00:41:15;99751.81;;;22.45;82.62
23170;BME280;11753;43.144;24.714;2023-08-21T00:42:15;99755.09;;;22.47;82.68
23170;BME280;11753;43.144;24.714;2023-08-21T00:43:15;99749.72;;;22.47;82.45
23170;BME280;11753;43.144;24.714;2023-08-21T00:44:19;99747.72;;;22.43;82.83
23170;BME280;11753;43.144;24.714;2023-08-21T00:45:19;99754.25;;;22.47;82.21
23170;BME280;11753;43.144;24.714;2023-08-21T00:46:19;99749.38;;;22.44;83.15
23170;BME280;11753;43.144;24.714;2023-08-21T00:47:20;99745.25;;;22.41;83.47
23170;BME280;11753;43.144;24.714;2023-08-21T00:48:20;99746.88;;;22.42;82.93
23170;BME280;11753;43.144;24.714;2023-08-21T00:49:21;99746.47;;;22.45;82.78
23170;BME280;11753;43.144;24.714;2023-08-21T00:50:21;99754.03;;;22.48;82.34
23170;BME280;11753;43.144;24.714;2023-08-21T00:51:22;99747.63;;;22.49;82.08
23170;BME280;11753;43.144;24.714;2023-08-21T00:52:22;99751.34;;;22.48;81.91
23170;BME280;11753;43.144;24.714;2023-08-21T00:53:23;99752.97;;;22.49;81.74
23170;BME280;11753;43.144;24.714;2023-08-21T00:54:23;99749.13;;;22.45;81.67
23170;BME280;11753;43.144;24.714;2023-08-21T00:55:24;99746.16;;;22.35;82.35
23170;BME280;11753;43.144;24.714;2023-08-21T00:56:24;99746.41;;;22.34;82.97
23170;BME280;11753;43.144;24.714;2023-08-21T00:57:25;99749.41;;;22.25;83.48
23170;BME280;11753;43.144;24.714;2023-08-21T00:58:26;99744.25;;;22.24;83.64
23170;BME280;11753;43.144;24.714;2023-08-21T00:59:26;99738.09;;;22.23;83.97
23170;BME280;11753;43.144;24.714;2023-08-21T01:00:27;99752.63;;;22.16;84.38
23170;BME280;11753;43.144;24.714;2023-08-21T01:01:28;99743.38;;;22.12;84.76
23170;BME280;11753;43.144;24.714;2023-08-21T01:02:30;99748.16;;;22.10;84.73
23170;BME280;11753;43.144;24.714;2023-08-21T01:03:30;99745.28;;;22.05;85.03
23170;BME280;11753;43.144;24.714;2023-08-21T01:04:31;99748.16;;;22.10;85.01
23170;BME280;11753;43.144;24.714;2023-08-21T01:05:31;99755.16;;;22.11;84.57
23170;BME280;11753;43.144;24.714;2023-08-21T01:06:32;99748.56;;;22.07;84.76
23170;BME280;11753;43.144;24.714;2023-08-21T01:07:36;99752.75;;;22.03;85.58
23170;BME280;11753;43.144;24.714;2023-08-21T01:08:49;99756.09;;;21.98;85.89
23170;BME280;11753;43.144;24.714;2023-08-21T01:12:19;99757.38;;;21.95;86.23
23170;BME280;11753;43.144;24.714;2023-08-21T01:15:38;99762.72;;;21.95;86.75
23170;BME280;11753;43.144;24.714;2023-08-21T01:16:39;99756.09;;;21.98;86.10
23170;BME280;11753;43.144;24.714;2023-08-21T01:17:41;99757.38;;;21.95;86.20
23170;BME280;11753;43.144;24.714;2023-08-21T01:18:42;99761.28;;;21.93;86.11
23170;BME280;11753;43.144;24.714;2023-08-21T01:19:44;99749.91;;;21.97;85.88
23170;BME280;11753;43.144;24.714;2023-08-21T01:20:46;99756.31;;;21.96;86.01
23170;BME280;11753;43.144;24.714;2023-08-21T01:21:50;99764.34;;;21.96;85.54
23170;BME280;11753;43.144;24.714;2023-08-21T01:22:50;99755.72;;;21.94;85.42
23170;BME280;11753;43.144;24.714;2023-08-21T01:23:51;99756.16;;;21.91;85.83
23170;BME280;11753;43.144;24.714;2023-08-21T01:24:51;99754.53;;;21.90;86.14
23170;BME280;11753;43.144;24.714;2023-08-21T01:25:51;99756.16;;;21.91;85.70
23170;BME280;11753;43.144;24.714;2023-08-21T01:26:52;99758.25;;;21.89;85.78
23170;BME280;11753;43.144;24.714;2023-08-21T01:27:52;99762.34;;;21.92;85.69
23170;BME280;11753;43.144;24.714;2023-08-21T01:28:53;99766.88;;;21.91;85.77
23170;BME280;11753;43.144;24.714;2023-08-21T01:29:53;99759.59;;;21.80;86.41
23170;BME280;11753;43.144;24.714;2023-08-21T01:31:15;99757.97;;;21.79;86.75
23170;BME280;11753;43.144;24.714;2023-08-21T01:32:20;99762.47;;;21.79;87.18
23170;BME280;11753;43.144;24.714;2023-08-21T01:33:23;99761.66;;;21.78;86.87
23170;BME280;11753;43.144;24.714;2023-08-21T01:34:25;99758.84;;;21.73;86.78
23170;BME280;11753;43.144;24.714;2023-08-21T01:35:27;99758.03;;;21.73;87.35
23170;BME280;11753;43.144;24.714;2023-08-21T01:36:28;99760.97;;;21.64;87.14
23170;BME280;11753;43.144;24.714;2023-08-21T01:37:29;99752.75;;;21.66;87.48
23170;BME280;11753;43.144;24.714;2023-08-21T01:38:31;99754.75;;;21.70;87.23
23170;BME280;11753;43.144;24.714;2023-08-21T01:39:32;99754.75;;;21.70;86.91
23170;BME280;11753;43.144;24.714;2023-08-21T01:40:32;99759.91;;;21.72;86.82
23170;BME280;11753;43.144;24.714;2023-08-21T01:41:33;99756.78;;;21.75;86.80
23170;BME280;11753;43.144;24.714;2023-08-21T01:42:34;99764.81;;;21.75;86.99
23170;BME280;11753;43.144;24.714;2023-08-21T01:43:35;99761.66;;;21.78;86.98
23170;BME280;11753;43.144;24.714;2023-08-21T01:44:35;99762.13;;;21.75;87.10
23170;BME280;11753;43.144;24.714;2023-08-21T01:45:35;99761.66;;;21.78;86.42
23170;BME280;11753;43.144;24.714;2023-08-21T01:46:36;99759.91;;;21.72;86.51
23170;BME280;11753;43.144;24.714;2023-08-21T01:47:36;99771.56;;;21.78;86.49
23170;BME280;11753;43.144;24.714;2023-08-21T01:48:37;99767.47;;;21.75;86.49
23170;BME280;11753;43.144;24.714;2023-08-21T01:49:37;99761.66;;;21.78;86.22
23170;BME280;11753;43.144;24.714;2023-08-21T01:50:37;99767.47;;;21.75;86.83
23170;BME280;11753;43.144;24.714;2023-08-21T01:51:38;99762.59;;;21.72;86.61
23170;BME280;11753;43.144;24.714;2023-08-21T01:52:38;99765.47;;;21.70;87.05
23170;BME280;11753;43.144;24.714;2023-08-21T01:53:39;99768.53;;;21.74;86.81
23170;BME280;11753;43.144;24.714;2023-08-21T01:54:39;99767.09;;;21.71;86.99
23170;BME280;11753;43.144;24.714;2023-08-21T01:55:39;99763.00;;;21.69;87.93
23170;BME280;11753;43.144;24.714;2023-08-21T01:56:40;99764.94;;;21.62;87.53
23170;BME280;11753;43.144;24.714;2023-08-21T01:57:40;99770.06;;;21.63;87.32
23170;BME280;11753;43.144;24.714;2023-08-21T01:58:42;99765.09;;;21.67;87.64
23170;BME280;11753;43.144;24.714;2023-08-21T01:59:42;99762.19;;;21.68;87.47
23170;BME280;11753;43.144;24.714;2023-08-21T02:00:45;99770.47;;;21.67;87.45
23170;BME280;11753;43.144;24.714;2023-08-21T02:01:45;99756.84;;;21.68;87.42
23170;BME280;11753;43.144;24.714;2023-08-21T02:02:46;99764.41;;;21.71;87.28
23170;BME280;11753;43.144;24.714;2023-08-21T02:03:46;99770.47;;;21.67;86.94
23170;BME280;11753;43.144;24.714;2023-08-21T02:04:46;99765.53;;;21.64;86.67
23170;BME280;11753;43.144;24.714;2023-08-21T02:05:47;99767.19;;;21.65;87.53
23170;BME280;11753;43.144;24.714;2023-08-21T02:06:47;99761.84;;;21.65;87.16
23170;BME280;11753;43.144;24.714;2023-08-21T02:07:48;99768.81;;;21.66;86.83
23170;BME280;11753;43.144;24.714;2023-08-21T02:08:48;99763.88;;;21.63;87.24
23170;BME280;11753;43.144;24.714;2023-08-21T02:09:49;99762.84;;;21.64;87.57
23170;BME280;11753;43.144;24.714;2023-08-21T02:10:52;99768.88;;;21.59;87.47
23170;BME280;11753;43.144;24.714;2023-08-21T02:11:53;99769.69;;;21.60;87.40
23170;BME280;11753;43.144;24.714;2023-08-21T02:12:53;99770.28;;;21.62;87.29
23170;BME280;11753;43.144;24.714;2023-08-21T02:13:54;99765.53;;;21.64;87.22
23170;BME280;11753;43.144;24.714;2023-08-21T02:14:54;99763.06;;;21.62;87.27
23170;BME280;11753;43.144;24.714;2023-08-21T02:15:55;99769.03;;;21.64;87.00
23170;BME280;11753;43.144;24.714;2023-08-21T02:16:55;99772.16;;;21.61;87.54
23170;BME280;11753;43.144;24.714;2023-08-21T02:17:55;99766.34;;;21.64;88.02
23170;BME280;11753;43.144;24.714;2023-08-21T02:18:56;99770.88;;;21.64;87.48
23170;BME280;11753;43.144;24.714;2023-08-21T02:19:57;99764.78;;;21.57;87.64
23170;BME280;11753;43.144;24.714;2023-08-21T02:20:57;99764.56;;;21.58;87.60
23170;BME280;11753;43.144;24.714;2023-08-21T02:21:58;99771.41;;;21.54;87.95
23170;BME280;11753;43.144;24.714;2023-08-21T02:22:58;99774.91;;;21.55;87.52
23170;BME280;11753;43.144;24.714;2023-08-21T02:23:59;99780.66;;;21.58;87.20
23170;BME280;11753;43.144;24.714;2023-08-21T02:25:02;99775.94;;;21.54;87.26
23170;BME280;11753;43.144;24.714;2023-08-21T02:26:03;99775.47;;;21.57;87.15
23170;BME280;11753;43.144;24.714;2023-08-21T02:27:03;99769.59;;;21.48;87.49
23170;BME280;11753;43.144;24.714;2023-08-21T02:28:04;99779.94;;;21.45;87.28
23170;BME280;11753;43.144;24.714;2023-08-21T02:29:04;99774.38;;;21.46;87.42
23170;BME280;11753;43.144;24.714;2023-08-21T02:30:09;99777.28;;;21.45;87.72
23170;BME280;11753;43.144;24.714;2023-08-21T02:31:10;99776.44;;;21.44;87.71
23170;BME280;11753;43.144;24.714;2023-08-21T02:32:10;99772.13;;;21.43;88.31
23170;BME280;11753;43.144;24.714;2023-08-21T02:33:11;99768.63;;;21.42;88.03
23170;BME280;11753;43.144;24.714;2023-08-21T02:34:11;99773.56;;;21.46;87.87
23170;BME280;11753;43.144;24.714;2023-08-21T02:35:12;99771.75;;;21.39;88.51
23170;BME280;11753;43.144;24.714;2023-08-21T02:36:13;99772.50;;;21.47;88.34
23170;BME280;11753;43.144;24.714;2023-08-21T02:37:13;99768.19;;;21.46;87.84
23170;BME280;11753;43.144;24.714;2023-08-21T02:38:19;99765.34;;;21.40;87.98
23170;BME280;11753;43.144;24.714;2023-08-21T02:39:23;99774.78;;;21.43;88.07
23170;BME280;11753;43.144;24.714;2023-08-21T02:40:24;99774.59;;;21.45;89.40
23170;BME280;11753;43.144;24.714;2023-08-21T02:41:25;99771.91;;;21.45;88.68
23170;BME280;11753;43.144;24.714;2023-08-21T02:42:25;99778.91;;;21.46;88.60
23170;BME280;11753;43.144;24.714;2023-08-21T02:43:26;99772.78;;;21.38;88.31
23170;BME280;11753;43.144;24.714;2023-08-21T02:44:26;99775.47;;;21.38;87.99
23170;BME280;11753;43.144;24.714;2023-08-21T02:45:26;99773.84;;;21.37;88.33
23170;BME280;11753;43.144;24.714;2023-08-21T02:46:27;99774.03;;;21.36;88.05
23170;BME280;11753;43.144;24.714;2023-08-21T02:47:27;99770.75;;;21.34;88.51
23170;BME280;11753;43.144;24.714;2023-08-21T02:48:27;99774.25;;;21.34;88.63
23170;BME280;11753;43.144;24.714;2023-08-21T02:49:28;99774.03;;;21.36;88.55
23170;BME280;11753;43.144;24.714;2023-08-21T02:52:05;99776.50;;;21.37;88.35
23170;BME280;11753;43.144;24.714;2023-08-21T02:53:06;99775.69;;;21.37;88.32
23170;BME280;11753;43.144;24.714;2023-08-21T02:54:06;99771.34;;;21.36;88.81
23170;BME280;11753;43.144;24.714;2023-08-21T02:55:06;99769.06;;;21.39;88.48
23170;BME280;11753;43.144;24.714;2023-08-21T02:56:07;99770.53;;;21.35;88.92
23170;BME280;11753;43.144;24.714;2023-08-21T02:57:07;99771.56;;;21.34;89.35
23170;BME280;11753;43.144;24.714;2023-08-21T02:58:09;99771.16;;;21.37;88.69
23170;BME280;11753;43.144;24.714;2023-08-21T02:59:11;99769.06;;;21.39;88.56
23170;BME280;11753;43.144;24.714;2023-08-21T03:00:11;99769.53;;;21.36;88.80
23170;BME280;11753;43.144;24.714;2023-08-21T03:01:12;99775.06;;;21.35;88.83
23170;BME280;11753;43.144;24.714;2023-08-21T03:02:12;99770.41;;;21.30;88.83
23170;BME280;11753;43.144;24.714;2023-08-21T03:03:12;99778.19;;;21.32;88.60
23170;BME280;11753;43.144;24.714;2023-08-21T03:04:13;99777.38;;;21.31;88.83
23170;BME280;11753;43.144;24.714;2023-08-21T03:05:13;99783.16;;;21.28;89.39
23170;BME280;11753;43.144;24.714;2023-08-21T03:06:14;99784.84;;;21.23;90.15
23170;BME280;11753;43.144;24.714;2023-08-21T03:07:16;99783.56;;;21.25;89.89
23170;BME280;11753;43.144;24.714;2023-08-21T03:08:18;99788.97;;;21.19;89.85
23170;BME280;11753;43.144;24.714;2023-08-21T03:09:19;99789.47;;;21.09;90.19
23170;BME280;11753;43.144;24.714;2023-08-21T03:10:19;99786.00;;;21.08;89.86
23170;BME280;11753;43.144;24.714;2023-08-21T03:11:20;99782.63;;;21.13;89.91
23170;BME280;11753;43.144;24.714;2023-08-21T03:12:21;99789.84;;;21.12;90.12
23170;BME280;11753;43.144;24.714;2023-08-21T03:13:21;99794.84;;;21.09;89.97
23170;BME280;11753;43.144;24.714;2023-08-21T03:14:21;99791.94;;;21.10;90.15
23170;BME280;11753;43.144;24.714;2023-08-21T03:15:22;99794.38;;;21.12;90.41
23170;BME280;11753;43.144;24.714;2023-08-21T03:16:22;99793.34;;;21.13;90.30
23170;BME280;11753;43.144;24.714;2023-08-21T03:17:23;99792.16;;;21.09;90.00
23170;BME280;11753;43.144;24.714;2023-08-21T03:18:23;99803.28;;;21.06;90.11
23170;BME280;11753;43.144;24.714;2023-08-21T03:19:24;99797.50;;;21.09;90.20
23170;BME280;11753;43.144;24.714;2023-08-21T03:20:24;99797.94;;;21.06;90.15
23170;BME280;11753;43.144;24.714;2023-08-21T03:21:24;99790.34;;;21.03;90.67
23170;BME280;11753;43.144;24.714;2023-08-21T03:22:25;99794.66;;;21.04;90.34
23170;BME280;11753;43.144;24.714;2023-08-21T03:23:25;99795.09;;;21.01;90.94
23170;BME280;11753;43.144;24.714;2023-08-21T03:24:26;99794.06;;;21.02;90.62
23170;BME280;11753;43.144;24.714;2023-08-21T03:25:27;99794.91;;;20.96;91.02
23170;BME280;11753;43.144;24.714;2023-08-21T03:26:27;99792.84;;;20.98;91.22
23170;BME280;11753;43.144;24.714;2023-08-21T03:27:27;99789.13;;;20.99;91.19
23170;BME280;11753;43.144;24.714;2023-08-21T03:28:28;99791.81;;;20.99;91.05
23170;BME280;11753;43.144;24.714;2023-08-21T03:29:28;99794.47;;;20.99;91.48
23170;BME280;11753;43.144;24.714;2023-08-21T03:30:29;99798.59;;;21.01;91.00
23170;BME280;11753;43.144;24.714;2023-08-21T03:31:32;99796.50;;;21.03;90.64
23170;BME280;11753;43.144;24.714;2023-08-21T03:32:32;99798.78;;;21.00;90.86
23170;BME280;11753;43.144;24.714;2023-08-21T03:33:33;99795.09;;;21.01;90.92
23170;BME280;11753;43.144;24.714;2023-08-21T03:34:33;99801.06;;;21.03;90.75
23170;BME280;11753;43.144;24.714;2023-08-21T03:35:33;99808.47;;;21.01;90.84
23170;BME280;11753;43.144;24.714;2023-08-21T03:36:34;99800.44;;;21.01;91.07
23170;BME280;11753;43.144;24.714;2023-08-21T03:37:37;99797.81;;;20.94;91.99
23170;BME280;11753;43.144;24.714;2023-08-21T03:38:39;99793.69;;;20.92;91.76
23170;BME280;11753;43.144;24.714;2023-08-21T03:39:40;99797.59;;;20.96;92.31
23170;BME280;11753;43.144;24.714;2023-08-21T03:40:40;99799.22;;;20.97;91.59
23170;BME280;11753;43.144;24.714;2023-08-21T03:41:41;99790.63;;;20.95;91.91
23170;BME280;11753;43.144;24.714;2023-08-21T03:42:41;99794.31;;;20.94;91.44
23170;BME280;11753;43.144;24.714;2023-08-21T03:43:43;99788.75;;;20.95;91.34
23170;BME280;11753;43.144;24.714;2023-08-21T03:44:43;99793.28;;;20.95;91.59
23170;BME280;11753;43.144;24.714;2023-08-21T03:45:44;99792.25;;;20.96;91.19
23170;BME280;11753;43.144;24.714;2023-08-21T03:46:44;99795.75;;;20.96;91.89
23170;BME280;11753;43.144;24.714;2023-08-21T03:47:45;99795.75;;;20.96;91.29
23170;BME280;11753;43.144;24.714;2023-08-21T03:48:45;99790.63;;;20.95;91.68
23170;BME280;11753;43.144;24.714;2023-08-21T03:49:45;99789.78;;;20.94;91.49
23170;BME280;11753;43.144;24.714;2023-08-21T03:50:49;99783.81;;;20.92;91.74
23170;BME280;11753;43.144;24.714;2023-08-21T03:51:49;99794.91;;;20.96;91.61
23170;BME280;11753;43.144;24.714;2023-08-21T03:52:49;99789.34;;;20.97;90.76
23170;BME280;11753;43.144;24.714;2023-08-21T03:53:50;99788.75;;;20.95;91.39
23170;BME280;11753;43.144;24.714;2023-08-21T03:54:50;99795.53;;;20.98;91.75
23170;BME280;11753;43.144;24.714;2023-08-21T03:55:51;99787.50;;;20.98;91.19
23170;BME280;11753;43.144;24.714;2023-08-21T03:56:52;99787.50;;;20.98;91.08
23170;BME280;11753;43.144;24.714;2023-08-21T03:57:52;99791.22;;;20.97;91.02
23170;BME280;11753;43.144;24.714;2023-08-21T03:58:52;99790.47;;;20.83;92.74
23170;BME280;11753;43.144;24.714;2023-08-21T03:59:55;99786.53;;;20.85;92.63
23170;BME280;11753;43.144;24.714;2023-08-21T04:00:56;99786.50;;;20.92;92.34
23170;BME280;11753;43.144;24.714;2023-08-21T04:01:56;99793.28;;;20.95;91.68
23170;BME280;11753;43.144;24.714;2023-08-21T04:02:59;99795.78;;;20.89;91.58
23170;BME280;11753;43.144;24.714;2023-08-21T04:04:00;99793.69;;;20.92;91.61
23170;BME280;11753;43.144;24.714;2023-08-21T04:05:00;99796.38;;;20.92;91.94
23170;BME280;11753;43.144;24.714;2023-08-21T04:06:01;99802.50;;;20.99;92.09
23170;BME280;11753;43.144;24.714;2023-08-21T04:07:01;99799.41;;;21.02;91.95
23170;BME280;11753;43.144;24.714;2023-08-21T04:08:02;99796.09;;;21.00;91.53
23170;BME280;11753;43.144;24.714;2023-08-21T04:09:04;99801.41;;;21.06;91.16
23170;BME280;11753;43.144;24.714;2023-08-21T04:10:15;99796.88;;;21.07;91.04
23170;BME280;11753;43.144;24.714;2023-08-21T04:11:26;99806.34;;;21.09;91.01
23170;BME280;11753;43.144;24.714;2023-08-21T04:12:32;99793.13;;;21.14;90.36
23170;BME280;11753;43.144;24.714;2023-08-21T04:13:33;99798.56;;;21.08;90.82
23170;BME280;11753;43.144;24.714;2023-08-21T04:14:33;99804.03;;;21.13;90.39
23170;BME280;11753;43.144;24.714;2023-08-21T04:15:33;99798.69;;;21.13;90.15
23170;BME280;11753;43.144;24.714;2023-08-21T04:16:37;99803.69;;;21.09;90.37
23170;BME280;11753;43.144;24.714;2023-08-21T04:17:40;99796.84;;;21.13;90.21
23170;BME280;11753;43.144;24.714;2023-08-21T04:18:41;99804.66;;;21.15;90.88
23170;BME280;11753;43.144;24.714;2023-08-21T04:19:41;99800.13;;;21.15;90.57
23170;BME280;11753;43.144;24.714;2023-08-21T04:21:04;99799.63;;;21.25;90.10
23170;BME280;11753;43.144;24.714;2023-08-21T04:22:04;99802.53;;;21.30;89.76
23170;BME280;11753;43.144;24.714;2023-08-21T04:23:04;99804.97;;;21.32;89.54
23170;BME280;11753;43.144;24.714;2023-08-21T04:24:05;99806.25;;;21.29;89.31
23170;BME280;11753;43.144;24.714;2023-08-21T04:25:05;99812.41;;;21.30;89.31
23170;BME280;11753;43.144;24.714;2023-08-21T04:26:07;99800.47;;;21.26;89.48
23170;BME280;11753;43.144;24.714;2023-08-21T04:27:07;99799.84;;;21.30;89.77
23170;BME280;11753;43.144;24.714;2023-08-21T04:28:14;99807.44;;;21.33;89.23
23170;BME280;11753;43.144;24.714;2023-08-21T04:29:15;99813.38;;;21.35;89.31
23170;BME280;11753;43.144;24.714;2023-08-21T04:30:15;99810.91;;;21.34;89.37
23170;BME280;11753;43.144;24.714;2023-08-21T04:31:16;99808.47;;;21.32;89.84
23170;BME280;11753;43.144;24.714;2023-08-21T04:32:25;99808.00;;;21.35;89.73
23170;BME280;11753;43.144;24.714;2023-08-21T04:36:48;99816.69;;;21.56;88.97
23170;BME280;11753;43.144;24.714;2023-08-21T04:37:52;99816.09;;;21.54;89.19
23170;BME280;11753;43.144;24.714;2023-08-21T04:38:54;99819.16;;;21.57;88.95
23170;BME280;11753;43.144;24.714;2023-08-21T04:39:57;99810.47;;;21.62;88.79
23170;BME280;11753;43.144;24.714;2023-08-21T04:41:05;99811.06;;;21.64;88.20
23170;BME280;11753;43.144;24.714;2023-08-21T04:42:12;99815.81;;;21.62;88.79
23170;BME280;11753;43.144;24.714;2023-08-21T04:43:15;99811.69;;;21.66;88.59
23170;BME280;11753;43.144;24.714;2023-08-21T04:44:19;99813.31;;;21.67;88.07
23170;BME280;11753;43.144;24.714;2023-08-21T04:45:20;99811.81;;;21.71;87.88
23170;BME280;11753;43.144;24.714;2023-08-21T04:46:23;99817.78;;;21.73;87.27
23170;BME280;11753;43.144;24.714;2023-08-21T04:50:59;99825.53;;;21.81;86.96
23170;BME280;11753;43.144;24.714;2023-08-21T04:51:59;99819.31;;;21.87;86.66
23170;BME280;11753;43.144;24.714;2023-08-21T04:53:00;99815.56;;;21.88;87.14
23170;BME280;11753;43.144;24.714;2023-08-21T04:57:36;99826.72;;;22.10;86.34
23170;BME280;11753;43.144;24.714;2023-08-21T04:59:02;99834.69;;;22.17;85.82
23170;BME280;11753;43.144;24.714;2023-08-21T05:00:22;99832.16;;;22.22;85.73
23170;BME280;11753;43.144;24.714;2023-08-21T05:05:01;99836.91;;;22.38;85.28
23170;BME280;11753;43.144;24.714;2023-08-21T05:20:13;99849.06;;;22.89;82.03
23170;BME280;11753;43.144;24.714;2023-08-21T05:21:19;99857.97;;;23.01;81.96
23170;BME280;11753;43.144;24.714;2023-08-21T05:27:16;99854.41;;;23.19;80.80
23170;BME280;11753;43.144;24.714;2023-08-21T05:28:16;99856.97;;;23.26;80.79
23170;BME280;11753;43.144;24.714;2023-08-21T05:29:24;99858.75;;;23.32;80.19
23170;BME280;11753;43.144;24.714;2023-08-21T05:30:25;99853.63;;;23.42;79.55
23170;BME280;11753;43.144;24.714;2023-08-21T05:31:32;99852.78;;;23.42;79.37
23170;BME280;11753;43.144;24.714;2023-08-21T05:32:39;99850.25;;;23.47;79.86
23170;BME280;11753;43.144;24.714;2023-08-21T05:33:42;99853.88;;;23.52;78.94
23170;BME280;11753;43.144;24.714;2023-08-21T05:34:50;99858.31;;;23.58;78.54
23170;BME280;11753;43.144;24.714;2023-08-21T05:35:51;99854.72;;;23.65;78.55
23170;BME280;11753;43.144;24.714;2023-08-21T05:36:51;99863.38;;;23.67;78.53
23170;BME280;11753;43.144;24.714;2023-08-21T05:37:54;99860.69;;;23.67;78.97
23170;BME280;11753;43.144;24.714;2023-08-21T05:38:57;99860.94;;;23.65;78.36
23170;BME280;11753;43.144;24.714;2023-08-21T05:40:10;99860.69;;;23.67;78.16
23170;BME280;11753;43.144;24.714;2023-08-21T05:41:22;99863.72;;;23.70;78.20
23170;BME280;11753;43.144;24.714;2023-08-21T05:42:43;99871.66;;;23.77;78.13
23170;BME280;11753;43.144;24.714;2023-08-21T05:43:49;99862.81;;;23.88;77.41
23170;BME280;11753;43.144;24.714;2023-08-21T05:44:56;99862.19;;;23.98;77.00
23170;BME280;11753;43.144;24.714;2023-08-21T05:46:02;99862.66;;;24.06;75.79
23170;BME280;11753;43.144;24.714;2023-08-21T05:47:05;99861.03;;;24.05;75.80
23170;BME280;11753;43.144;24.714;2023-08-21T05:48:17;99864.88;;;24.09;76.30
23170;BME280;11753;43.144;24.714;2023-08-21T05:49:17;99862.91;;;24.16;76.36
23170;BME280;11753;43.144;24.714;2023-08-21T05:50:23;99856.56;;;24.23;75.71
23170;BME280;11753;43.144;24.714;2023-08-21T05:51:26;99862.53;;;24.25;75.41
23170;BME280;11753;43.144;24.714;2023-08-21T05:52:26;99859.94;;;24.30;75.42
23170;BME280;11753;43.144;24.714;2023-08-21T05:53:29;99862.63;;;24.41;75.20
23170;BME280;11753;43.144;24.714;2023-08-21T05:54:29;99857.94;;;24.49;75.19
23170;BME280;11753;43.144;24.714;2023-08-21T05:55:35;99861.06;;;24.57;74.65
23170;BME280;11753;43.144;24.714;2023-08-21T05:56:36;99861.66;;;24.59;74.40
23170;BME280;11753;43.144;24.714;2023-08-21T05:57:37;99861.28;;;24.67;74.02
23170;BME280;11753;43.144;24.714;2023-08-21T05:58:37;99862.28;;;24.78;73.45
23170;BME280;11753;43.144;24.714;2023-08-21T05:59:42;99861.00;;;24.81;73.34
23170;BME280;11753;43.144;24.714;2023-08-21T06:00:43;99856.03;;;24.89;72.86
23170;BME280;11753;43.144;24.714;2023-08-21T06:01:46;99859.97;;;24.98;72.40
23170;BME280;11753;43.144;24.714;2023-08-21T06:02:48;99851.50;;;25.07;72.31